Strona główna
METAR-TAF:

METAR-TAF

Lotnisko :

Port lotniczy Aalborg

Aalborg, Dania

Szerokość geograficzna: 57-06N, Długość geograficzna: 009-51E, wysokość: 3 m

Aktualna obserwacja pogody

Raport powstał 23 minut temu, godzina 04:20 UTC
Wiatr 7 kt od północny zachód, zmienny między zachód i północno-północny zachód
Temperatura 5°C
Wilgotność 70%
Ciśnienie 1020 hPa
Widzialność 10 km lub więcej

METAR: EKYT 090420Z AUTO 31007KT 280V340 9999 NCD 05/00 Q1020

czas: 06:43 (04:43 UTC)

Prognoza

Raport powstał 2 godziny i 21 minut temu, godzina 02:22 UTC
Prognoza ważna od 09 godzina 03 UTC do 10 godzina 03 UTC
Wiatr 12 kt od zachodnio-północny zachód
Widzialność 10 km lub więcej
Przerywane chmury na wysokości 1000 ft
Stopniowe zmiany
od 09 godzina 03 UTC do 09 godzina 04 UTC
Mało chmury na wysokości 2000 ft
Przejściowo
od 09 godzina 07 UTC do 09 godzina 15 UTC
Wiatr 18 kt od północny zachód w porywach dochodzący do 28 kt

TAF: EKYT 090222Z 0903/1003 30012KT 9999 BKN010 BECMG 0903/0904 FEW020 TEMPO 0907/0915 31018G28KT

Obserwacja i prognoza pogody dla ponad 4000 lotnisk (raport METAR i TAF).

Dostępne stacje oznaczono żółtymi i czerwonymi punktami na mapie.

Najedź kursorem aby zobaczyć nazwę stacji.

Kliknij aby zobaczyć obserwacje i prognozy pogody.

Aby zmienić mapę: kliknij na zielony przycisk z czarnym krzyżykiem, aby powiększyć; na zielony przycisk z myślnikiem, aby pomniejszyć; na zielone strzałki, aby przejść do map sąsiednich.


METAR-TAF: